Beiseker, Canada
Current Conditions -  °F | °C
As of 7:00 PM on Friday 24 Oct 2014 (Local Time) from CYYC Reporting Station
Scattered Clouds Scattered Clouds  
Wind Chill:   Ceiling: Unl
Heat Index:   Visibility: 20mi
Dew Point: -10°   Wind: 15mph
Humidity: 27%   Direction: 280°W
Pressure: 29.98"   Gusts: 22mph
Location:  51.38°N, 113.53°W
Report Text: CYYC 250100Z 28013G19KT 20SM FEW050 FEW180 SCT220 08/M10 A2998 RMK SC1AC1CI4 SC TR AC TR SLP182
Loading
Personal Weather Stations






























Interactive Weather Map
Tropical Storm Tracking
New forecast layout! Learn more

10-Day Weather Forecast

Advertisements
Track Severe Weather on mobile